Drayden, Maryland
Current Conditions -  °F | °C
As of 4:53 PM on Sunday 25 Jan 2015 (Local Time) from KNUI Reporting Station
Clear Clear  
Wind Chill: 44°   Ceiling: Unl
Heat Index: 47°   Visibility: 10mi
Dew Point: 31°   Wind: 6mph
Humidity: 54%   Direction: 150°SSE
Pressure: 29.85"   Gusts: NA
Location:  38.18°N, 76.48°W
Report Text: KNUI 252153Z AUTO 15005KT 10SM CLR 08/M01 A2985 RMK AO2 SLP106 T00831006 $
Loading
Personal Weather Stations






























Interactive Weather Map New forecast layout! Learn more

10-Day Weather Forecast

Advertisements
Track Severe Weather on mobile